createdAt,value
2023-10-23T00:00:03.674Z,8.60
2023-10-23T00:02:33.578Z,8.60
2023-10-23T00:05:04.287Z,8.60
2023-10-23T00:07:36.932Z,8.60
2023-10-23T00:10:07.284Z,8.60
2023-10-23T00:12:39.894Z,8.60
2023-10-23T00:15:11.034Z,8.60
2023-10-23T00:17:40.934Z,8.50
2023-10-23T00:20:12.379Z,8.50
2023-10-23T00:22:44.872Z,8.50
2023-10-23T00:25:14.866Z,8.40
2023-10-23T00:27:42.198Z,8.40
2023-10-23T00:30:12.642Z,8.40
2023-10-23T00:32:42.632Z,8.50
2023-10-23T00:35:12.783Z,8.40
2023-10-23T00:37:46.212Z,8.50
2023-10-23T00:40:16.849Z,8.50
2023-10-23T00:42:46.900Z,8.50
2023-10-23T00:45:16.879Z,8.50
2023-10-23T00:47:46.985Z,8.50
2023-10-23T00:50:17.752Z,8.50
2023-10-23T00:52:50.310Z,8.50
2023-10-23T00:55:23.022Z,8.50
2023-10-23T00:57:53.001Z,8.50
2023-10-23T01:00:23.321Z,8.50
2023-10-23T01:02:54.319Z,8.60
2023-10-23T01:05:24.336Z,8.60
2023-10-23T01:07:58.798Z,8.50
2023-10-23T01:10:28.684Z,8.50
2023-10-23T01:12:58.846Z,8.40
2023-10-23T01:15:29.050Z,8.40
2023-10-23T01:18:01.098Z,8.40
2023-10-23T01:20:32.067Z,8.30
2023-10-23T01:23:06.062Z,8.30
2023-10-23T01:25:39.455Z,8.20
2023-10-23T01:28:09.562Z,8.20
2023-10-23T01:30:39.699Z,8.10
2023-10-23T01:33:09.849Z,8.10
2023-10-23T01:35:39.862Z,8.00
2023-10-23T01:38:09.877Z,8.00
2023-10-23T01:40:42.402Z,8.00
2023-10-23T01:43:12.296Z,8.00
2023-10-23T01:45:42.456Z,8.00
2023-10-23T01:48:12.374Z,8.10
2023-10-23T01:50:42.298Z,8.00
2023-10-23T01:53:12.322Z,8.10
2023-10-23T01:55:44.812Z,8.20
2023-10-23T01:58:14.713Z,8.20
2023-10-23T02:00:44.686Z,8.10
2023-10-23T02:03:14.626Z,8.10
2023-10-23T02:05:47.374Z,8.00
2023-10-23T02:08:17.850Z,8.00
2023-10-23T02:10:50.327Z,7.90
2023-10-23T02:13:20.270Z,7.90
2023-10-23T02:15:50.335Z,7.90
2023-10-23T02:18:20.529Z,7.90
2023-10-23T02:20:50.510Z,7.90
2023-10-23T02:23:20.420Z,7.80
2023-10-23T02:25:52.914Z,7.70
2023-10-23T02:28:22.911Z,7.80
2023-10-23T02:30:53.006Z,7.80
2023-10-23T02:33:23.103Z,7.80
2023-10-23T02:35:53.029Z,7.70
2023-10-23T02:38:23.049Z,7.70
2023-10-23T02:40:58.814Z,7.70
2023-10-23T02:43:28.702Z,7.70
2023-10-23T02:45:58.660Z,7.70
2023-10-23T02:48:28.642Z,7.70
2023-10-23T02:50:59.197Z,7.70
2023-10-23T02:53:29.179Z,7.70
2023-10-23T02:56:01.776Z,7.60
2023-10-23T02:58:34.301Z,7.60
2023-10-23T03:01:04.186Z,7.60
2023-10-23T03:03:34.591Z,7.60
2023-10-23T03:06:04.586Z,7.50
2023-10-23T03:08:34.522Z,7.50
2023-10-23T03:11:07.192Z,7.50
2023-10-23T03:13:37.795Z,7.50
2023-10-23T03:16:08.747Z,7.50
2023-10-23T03:18:38.908Z,7.50
2023-10-23T03:21:08.830Z,7.40
2023-10-23T03:23:39.411Z,7.40
2023-10-23T03:26:12.035Z,7.40
2023-10-23T03:28:41.989Z,7.40
2023-10-23T03:31:11.947Z,7.30
2023-10-23T03:33:42.756Z,7.30
2023-10-23T03:36:12.771Z,7.30
2023-10-23T03:38:42.798Z,7.30
2023-10-23T03:41:15.313Z,7.30
2023-10-23T03:43:45.232Z,7.30
2023-10-23T03:46:15.354Z,7.30
2023-10-23T03:48:45.505Z,7.30
2023-10-23T03:51:15.382Z,7.30
2023-10-23T03:53:45.298Z,7.50
2023-10-23T03:56:17.779Z,7.50
2023-10-23T03:58:47.921Z,7.50
2023-10-23T04:01:17.858Z,7.40
2023-10-23T04:03:47.896Z,7.40
2023-10-23T04:06:17.835Z,7.40
2023-10-23T04:08:47.818Z,7.30
2023-10-23T04:11:20.473Z,7.30
2023-10-23T04:13:50.460Z,7.30
2023-10-23T04:16:20.442Z,7.30
2023-10-23T04:18:50.886Z,7.20
2023-10-23T04:21:22.209Z,7.20
2023-10-23T04:23:52.220Z,7.20
2023-10-23T04:26:24.809Z,7.10
2023-10-23T04:28:54.714Z,7.20
2023-10-23T04:31:24.647Z,7.20
2023-10-23T04:33:54.594Z,7.10
2023-10-23T04:36:24.657Z,7.20
2023-10-23T04:38:54.697Z,7.10
2023-10-23T04:41:27.294Z,7.00
2023-10-23T04:43:57.296Z,6.90
2023-10-23T04:46:27.465Z,6.90
2023-10-23T04:48:57.556Z,6.90
2023-10-23T04:51:27.539Z,7.00
2023-10-23T04:53:57.449Z,6.90
2023-10-23T04:56:30.005Z,6.90
2023-10-23T04:59:00.328Z,6.80
2023-10-23T05:01:30.295Z,6.80
2023-10-23T05:04:00.227Z,6.80
2023-10-23T05:06:30.428Z,6.80
2023-10-23T05:09:00.394Z,6.80
2023-10-23T05:11:34.118Z,6.70
2023-10-23T05:14:04.247Z,6.70
2023-10-23T05:16:34.153Z,6.80
2023-10-23T05:19:04.690Z,6.70
2023-10-23T05:21:34.672Z,6.70
2023-10-23T05:24:04.629Z,6.80
2023-10-23T05:26:37.148Z,6.80
2023-10-23T05:29:07.169Z,6.90
2023-10-23T05:31:37.194Z,6.90
2023-10-23T05:34:08.262Z,6.80
2023-10-23T05:36:38.300Z,6.80
2023-10-23T05:39:08.781Z,6.80
2023-10-23T05:41:41.265Z,6.70
2023-10-23T05:44:11.149Z,6.70
2023-10-23T05:46:41.065Z,6.70
2023-10-23T05:49:11.034Z,6.70
2023-10-23T05:51:41.113Z,6.70
2023-10-23T05:54:12.048Z,6.70
2023-10-23T05:56:44.772Z,6.80
2023-10-23T05:59:14.685Z,6.70
2023-10-23T06:01:44.653Z,6.70
2023-10-23T06:04:14.656Z,6.80
2023-10-23T06:06:44.770Z,6.80
2023-10-23T06:09:14.781Z,6.80
2023-10-23T06:11:47.301Z,6.80
2023-10-23T06:14:17.275Z,6.80
2023-10-23T06:16:47.223Z,6.80
2023-10-23T06:19:17.148Z,6.90
2023-10-23T06:21:47.069Z,6.90
2023-10-23T06:24:16.982Z,6.90
2023-10-23T06:26:49.459Z,6.90
2023-10-23T06:29:19.412Z,7.10
2023-10-23T06:31:49.355Z,7.10
2023-10-23T06:34:19.251Z,7.10
2023-10-23T06:36:49.256Z,7.20
2023-10-23T06:39:19.418Z,7.30
2023-10-23T06:41:53.511Z,7.40
2023-10-23T06:44:23.413Z,7.40
2023-10-23T06:46:54.215Z,7.50
2023-10-23T06:49:24.136Z,7.50
2023-10-23T06:51:54.028Z,7.60
2023-10-23T06:54:25.204Z,7.70
2023-10-23T06:56:57.944Z,7.80
2023-10-23T06:59:31.000Z,7.90
2023-10-23T07:02:01.914Z,7.90
2023-10-23T07:04:32.235Z,7.80
2023-10-23T07:07:05.897Z,7.80
2023-10-23T07:09:44.351Z,7.80
2023-10-23T07:12:17.669Z,7.90
2023-10-23T07:14:47.579Z,7.80
2023-10-23T07:17:17.516Z,7.90
2023-10-23T07:19:47.438Z,8.00
2023-10-23T07:22:17.356Z,8.00
2023-10-23T07:24:47.267Z,8.10
2023-10-23T07:27:19.895Z,8.10
2023-10-23T07:29:50.023Z,8.20
2023-10-23T07:32:20.059Z,8.40
2023-10-23T07:34:49.960Z,8.40
2023-10-23T07:37:22.993Z,8.50
2023-10-23T07:39:53.192Z,8.40
2023-10-23T07:42:25.801Z,8.40
2023-10-23T07:44:55.733Z,8.30
2023-10-23T07:47:25.934Z,8.50
2023-10-23T07:49:55.937Z,8.50
2023-10-23T07:52:26.199Z,8.50
2023-10-23T07:54:56.341Z,8.70
2023-10-23T07:57:28.966Z,8.80
2023-10-23T07:59:58.851Z,8.90
2023-10-23T08:02:28.907Z,9.10
2023-10-23T08:04:58.952Z,9.40
2023-10-23T08:07:28.944Z,9.40
2023-10-23T08:09:58.848Z,9.40
2023-10-23T08:12:31.360Z,9.30
2023-10-23T08:15:01.230Z,9.40
2023-10-23T08:17:41.442Z,9.40
2023-10-23T08:20:13.341Z,9.50
2023-10-23T08:22:43.379Z,9.70
2023-10-23T08:25:13.708Z,9.60
2023-10-23T08:27:46.302Z,9.80
2023-10-23T08:30:17.331Z,9.80
2023-10-23T08:32:52.783Z,9.60
2023-10-23T08:35:23.457Z,9.80
2023-10-23T08:37:53.438Z,9.90
2023-10-23T08:40:23.622Z,10.00
2023-10-23T08:42:56.559Z,10.20
2023-10-23T08:45:26.671Z,10.10
2023-10-23T08:47:56.682Z,10.00
2023-10-23T08:50:27.318Z,10.10
2023-10-23T08:53:01.817Z,10.20
2023-10-23T08:55:32.788Z,10.30
2023-10-23T08:58:08.995Z,10.20
2023-10-23T09:00:39.266Z,10.20
2023-10-23T09:03:09.371Z,10.40
2023-10-23T09:05:39.473Z,10.20
2023-10-23T09:08:10.153Z,10.40
2023-10-23T09:11:04.670Z,10.60
2023-10-23T09:13:40.866Z,10.40
2023-10-23T09:16:12.286Z,10.50
2023-10-23T09:18:50.789Z,10.50
2023-10-23T09:21:20.872Z,10.60
2023-10-23T09:23:55.043Z,10.80
2023-10-23T09:26:25.557Z,10.70
2023-10-23T09:28:58.590Z,10.60
2023-10-23T09:31:28.806Z,10.60
2023-10-23T09:33:59.058Z,10.60
2023-10-23T09:36:33.058Z,10.60
2023-10-23T09:39:04.264Z,10.60
2023-10-23T09:41:35.434Z,10.80
2023-10-23T09:44:09.141Z,10.80
2023-10-23T09:46:40.289Z,11.00
2023-10-23T09:49:10.779Z,11.10
2023-10-23T09:51:43.628Z,11.10
2023-10-23T09:54:18.669Z,11.10
2023-10-23T09:56:52.663Z,11.10
2023-10-23T09:59:29.848Z,11.10
2023-10-23T10:02:05.597Z,11.20
2023-10-23T10:04:46.706Z,11.30
2023-10-23T10:07:30.171Z,11.30
2023-10-23T10:10:00.868Z,11.30
2023-10-23T10:12:30.988Z,11.40
2023-10-23T10:15:05.206Z,11.30
2023-10-23T10:17:42.145Z,11.30
2023-10-23T10:20:14.525Z,11.40
2023-10-23T10:22:47.150Z,11.50
2023-10-23T10:25:18.011Z,11.70
2023-10-23T10:27:47.991Z,11.60
2023-10-23T10:30:48.459Z,11.60
2023-10-23T10:34:22.782Z,11.50
2023-10-23T10:36:16.272Z,11.40
2023-10-23T10:39:06.865Z,11.60
2023-10-23T10:41:39.196Z,11.70
2023-10-23T10:44:13.462Z,11.90
2023-10-23T10:46:49.886Z,11.80
2023-10-23T10:49:23.587Z,11.60
2023-10-23T10:51:53.671Z,11.60
2023-10-23T10:54:24.831Z,11.70
2023-10-23T10:56:55.404Z,11.80
2023-10-23T10:59:30.195Z,11.80
2023-10-23T11:02:02.748Z,11.70
2023-10-23T11:04:32.757Z,11.70
2023-10-23T11:07:04.057Z,11.70
2023-10-23T11:09:34.199Z,11.80
2023-10-23T11:12:04.143Z,11.90
2023-10-23T11:14:34.066Z,11.90
2023-10-23T11:17:07.452Z,11.90
2023-10-23T11:19:37.885Z,12.10
2023-10-23T11:22:11.436Z,12.00
2023-10-23T11:24:42.064Z,12.20
2023-10-23T11:27:12.723Z,12.40
2023-10-23T11:29:43.981Z,12.40
2023-10-23T11:32:18.128Z,12.50
2023-10-23T11:34:48.993Z,12.40
2023-10-23T11:37:19.188Z,12.50
2023-10-23T11:39:51.612Z,12.40
2023-10-23T11:42:19.212Z,12.40
2023-10-23T11:44:50.766Z,12.40
2023-10-23T11:47:23.241Z,12.40
2023-10-23T11:49:53.340Z,12.40
2023-10-23T11:52:24.255Z,12.20
2023-10-23T11:54:54.238Z,12.30
2023-10-23T11:57:26.335Z,12.40
2023-10-23T11:59:56.332Z,12.50
2023-10-23T12:02:30.379Z,12.60
2023-10-23T12:05:00.790Z,12.60
2023-10-23T12:07:31.031Z,12.60
2023-10-23T12:10:00.973Z,12.60
2023-10-23T12:12:30.924Z,12.60
2023-10-23T12:15:01.070Z,12.50
2023-10-23T12:17:33.624Z,12.50
2023-10-23T12:20:08.357Z,12.50
2023-10-23T12:22:39.901Z,12.40
2023-10-23T12:25:11.350Z,12.30
2023-10-23T12:27:42.355Z,12.20
2023-10-23T12:30:16.806Z,12.20
2023-10-23T12:33:13.189Z,12.30
2023-10-23T12:35:42.871Z,12.30
2023-10-23T12:38:13.731Z,12.30
2023-10-23T12:40:44.872Z,12.40
2023-10-23T12:43:15.073Z,12.40
2023-10-23T12:45:47.239Z,12.50
2023-10-23T12:48:19.842Z,12.50
2023-10-23T12:50:50.464Z,12.60
2023-10-23T12:53:20.428Z,12.60
2023-10-23T12:55:50.311Z,12.70
2023-10-23T12:58:20.398Z,12.60
2023-10-23T13:00:50.746Z,12.70
2023-10-23T13:03:23.302Z,12.70
2023-10-23T13:05:53.390Z,12.70
2023-10-23T13:08:23.476Z,12.60
2023-10-23T13:10:53.483Z,12.60
2023-10-23T13:13:23.385Z,12.60
2023-10-23T13:15:53.446Z,12.70
2023-10-23T13:18:26.071Z,12.60
2023-10-23T13:21:30.423Z,12.60
2023-10-23T13:23:45.923Z,12.60
2023-10-23T13:26:16.241Z,12.60
2023-10-23T13:28:49.220Z,12.60
2023-10-23T13:31:19.788Z,12.50
2023-10-23T13:33:52.349Z,12.50
2023-10-23T13:36:22.300Z,12.60
2023-10-23T13:38:52.447Z,12.60
2023-10-23T13:41:22.483Z,12.50
2023-10-23T13:43:52.540Z,12.30
2023-10-23T13:46:23.116Z,12.30
2023-10-23T13:48:56.014Z,12.30
2023-10-23T13:51:26.564Z,12.40
2023-10-23T13:53:56.635Z,12.30
2023-10-23T13:56:26.583Z,12.30
2023-10-23T13:58:56.447Z,12.20
2023-10-23T14:01:26.446Z,12.20
2023-10-23T14:03:59.150Z,12.10
2023-10-23T14:06:29.227Z,12.10
2023-10-23T14:09:41.768Z,12.20
2023-10-23T14:11:59.822Z,12.20
2023-10-23T14:14:31.636Z,12.20
2023-10-23T14:17:01.727Z,12.30
2023-10-23T14:19:46.674Z,12.60
2023-10-23T14:22:18.391Z,12.70
2023-10-23T14:24:50.709Z,12.80
2023-10-23T14:27:20.832Z,12.90
2023-10-23T14:29:50.722Z,13.00
2023-10-23T14:32:20.757Z,13.10
2023-10-23T14:34:53.364Z,13.00
2023-10-23T14:37:23.271Z,12.90
2023-10-23T14:39:53.280Z,12.90
2023-10-23T14:42:23.334Z,12.90
2023-10-23T14:44:53.384Z,13.00
2023-10-23T14:47:23.355Z,12.90
2023-10-23T14:49:56.333Z,12.90
2023-10-23T14:52:26.306Z,12.90
2023-10-23T14:54:57.818Z,12.90
2023-10-23T14:57:27.795Z,12.90
2023-10-23T15:00:00.982Z,12.90
2023-10-23T15:02:31.097Z,12.90
2023-10-23T15:05:04.529Z,12.90
2023-10-23T15:07:34.710Z,13.00
2023-10-23T15:10:04.848Z,13.10
2023-10-23T15:12:34.720Z,13.10
2023-10-23T15:15:04.808Z,13.20
2023-10-23T15:17:34.796Z,13.30
2023-10-23T15:20:08.399Z,13.30
2023-10-23T15:22:38.371Z,13.30
2023-10-23T15:25:10.192Z,13.20
2023-10-23T15:27:42.480Z,13.20
2023-10-23T15:30:13.642Z,13.20
2023-10-23T15:32:43.655Z,13.10
2023-10-23T15:35:23.354Z,13.00
2023-10-23T15:37:53.503Z,13.00
2023-10-23T15:40:24.418Z,12.90
2023-10-23T15:42:54.417Z,12.90
2023-10-23T15:45:24.625Z,12.80
2023-10-23T15:48:00.717Z,12.80
2023-10-23T15:50:34.125Z,12.90
2023-10-23T15:53:06.203Z,12.90
2023-10-23T15:55:36.354Z,13.00
2023-10-23T15:58:07.709Z,13.00
2023-10-23T16:00:38.378Z,13.00
2023-10-23T16:03:08.555Z,13.00
2023-10-23T16:05:44.031Z,13.00
2023-10-23T16:08:14.587Z,12.90
2023-10-23T16:10:48.607Z,12.80
2023-10-23T16:13:19.783Z,12.80
2023-10-23T16:15:49.984Z,12.80
2023-10-23T16:18:20.001Z,12.90
2023-10-23T16:20:56.485Z,12.90
2023-10-23T16:23:26.585Z,12.90
2023-10-23T16:25:58.486Z,12.80
2023-10-23T16:28:28.556Z,12.80
2023-10-23T16:30:58.571Z,12.90
2023-10-23T16:33:28.518Z,12.90
2023-10-23T16:36:01.121Z,12.90
2023-10-23T16:38:31.046Z,12.90
2023-10-23T16:41:00.902Z,12.90
2023-10-23T16:43:30.906Z,13.10
2023-10-23T16:46:02.517Z,13.20
2023-10-23T16:48:32.438Z,13.10
2023-10-23T16:51:06.114Z,13.10
2023-10-23T16:53:36.589Z,13.00
2023-10-23T16:56:07.368Z,13.00
2023-10-23T16:58:37.406Z,13.00
2023-10-23T17:01:10.667Z,13.00
2023-10-23T17:03:42.068Z,13.10
2023-10-23T17:06:14.732Z,13.20
2023-10-23T17:08:44.679Z,13.30
2023-10-23T17:11:17.133Z,13.30
2023-10-23T17:13:47.134Z,13.40
2023-10-23T17:16:17.349Z,13.30
2023-10-23T17:18:47.539Z,13.40
2023-10-23T17:21:20.128Z,13.40
2023-10-23T17:23:51.055Z,13.40
2023-10-23T17:26:21.034Z,13.30
2023-10-23T17:28:51.397Z,13.30
2023-10-23T17:31:21.631Z,13.30
2023-10-23T17:33:51.671Z,13.20
2023-10-23T17:36:27.397Z,13.20
2023-10-23T17:38:58.222Z,13.10
2023-10-23T17:41:28.788Z,13.10
2023-10-23T17:43:58.756Z,13.00
2023-10-23T17:46:29.741Z,13.00
2023-10-23T17:49:00.211Z,12.90
2023-10-23T17:51:33.099Z,12.90
2023-10-23T17:54:05.931Z,12.90
2023-10-23T17:56:37.480Z,12.80
2023-10-23T17:59:07.792Z,12.90
2023-10-23T18:01:37.812Z,12.90
2023-10-23T18:04:10.841Z,12.90
2023-10-23T18:06:44.446Z,12.90
2023-10-23T18:09:14.432Z,12.90
2023-10-23T18:11:44.314Z,12.80
2023-10-23T18:14:14.958Z,12.70
2023-10-23T18:16:44.960Z,12.60
2023-10-23T18:19:17.002Z,12.60
2023-10-23T18:21:50.350Z,12.50
2023-10-23T18:24:20.271Z,12.50
2023-10-23T18:26:50.241Z,12.50
2023-10-23T18:29:20.184Z,12.50
2023-10-23T18:31:50.201Z,12.50
2023-10-23T18:34:20.150Z,12.50
2023-10-23T18:36:52.772Z,12.50
2023-10-23T18:39:22.788Z,12.40
2023-10-23T18:41:53.205Z,12.40
2023-10-23T18:44:24.588Z,12.30
2023-10-23T18:46:54.683Z,12.30
2023-10-23T18:49:24.713Z,12.30
2023-10-23T18:51:57.308Z,12.20
2023-10-23T18:54:27.334Z,12.20
2023-10-23T18:57:00.692Z,12.20
2023-10-23T18:59:30.638Z,12.20
2023-10-23T19:02:00.629Z,12.20
2023-10-23T19:04:30.723Z,12.10
2023-10-23T19:07:03.416Z,12.10
2023-10-23T19:09:33.386Z,12.10
2023-10-23T19:12:03.770Z,12.10
2023-10-23T19:14:33.774Z,12.10
2023-10-23T19:17:05.079Z,12.10
2023-10-23T19:19:35.718Z,12.10
2023-10-23T19:22:08.290Z,12.10
2023-10-23T19:24:38.356Z,12.10
2023-10-23T19:27:11.002Z,12.10
2023-10-23T19:29:41.103Z,12.10
2023-10-23T19:32:12.723Z,12.20
2023-10-23T19:34:43.459Z,12.20
2023-10-23T19:37:16.549Z,12.20
2023-10-23T19:39:48.696Z,12.30
2023-10-23T19:42:20.824Z,12.30
2023-10-23T19:44:51.400Z,12.30
2023-10-23T19:47:22.570Z,12.30
2023-10-23T19:49:53.312Z,12.30
2023-10-23T19:52:25.903Z,12.30
2023-10-23T19:55:05.878Z,12.30
2023-10-23T19:57:48.677Z,12.40
2023-10-23T20:00:20.206Z,12.40
2023-10-23T20:02:51.619Z,12.30
2023-10-23T20:05:21.891Z,12.30
2023-10-23T20:07:54.424Z,12.30
2023-10-23T20:10:26.012Z,12.30
2023-10-23T20:12:57.342Z,12.30
2023-10-23T20:15:28.120Z,12.20
2023-10-23T20:17:58.662Z,12.20
2023-10-23T20:20:29.486Z,12.20
2023-10-23T20:23:02.895Z,12.20
2023-10-23T20:25:34.035Z,12.30
2023-10-23T20:28:04.175Z,12.30
2023-10-23T20:30:35.355Z,12.20
2023-10-23T20:33:05.525Z,12.20
2023-10-23T20:35:36.106Z,12.20
2023-10-23T20:38:08.601Z,12.10
2023-10-23T20:40:40.405Z,12.10
2023-10-23T20:43:10.494Z,12.10
2023-10-23T20:45:41.448Z,12.10
2023-10-23T20:48:11.621Z,12.00
2023-10-23T20:50:43.602Z,12.00
2023-10-23T20:53:16.142Z,12.10
2023-10-23T20:55:46.150Z,12.10
2023-10-23T20:58:16.083Z,12.10
2023-10-23T21:00:45.995Z,12.10
2023-10-23T21:03:16.837Z,12.20
2023-10-23T21:05:46.992Z,12.20
2023-10-23T21:08:19.482Z,12.10
2023-10-23T21:10:49.408Z,12.10
2023-10-23T21:13:20.057Z,12.10
2023-10-23T21:15:50.488Z,12.10
2023-10-23T21:18:20.555Z,12.00
2023-10-23T21:20:50.488Z,12.00
2023-10-23T21:23:23.055Z,12.10
2023-10-23T21:25:53.354Z,12.10
2023-10-23T21:28:28.597Z,12.10
2023-10-23T21:30:59.061Z,12.20
2023-10-23T21:33:29.025Z,12.10
2023-10-23T21:35:59.172Z,12.10
2023-10-23T21:38:31.778Z,12.10
2023-10-23T21:41:04.216Z,12.00
2023-10-23T21:43:34.221Z,11.90
2023-10-23T21:46:16.499Z,11.90
2023-10-23T21:48:47.733Z,11.90
2023-10-23T21:51:17.646Z,11.90
2023-10-23T21:53:51.101Z,11.90
2023-10-23T21:57:02.201Z,11.90
2023-10-23T21:59:19.034Z,11.80
2023-10-23T22:01:51.947Z,11.80
2023-10-23T22:04:24.394Z,11.80
2023-10-23T22:06:56.157Z,11.80
2023-10-23T22:09:29.572Z,11.80
2023-10-23T22:12:00.955Z,11.80
2023-10-23T22:14:32.033Z,11.80
2023-10-23T22:17:02.067Z,11.80
2023-10-23T22:19:33.142Z,11.80
2023-10-23T22:22:03.975Z,11.80
2023-10-23T22:24:36.575Z,11.80
2023-10-23T22:27:06.866Z,11.80
2023-10-23T22:29:36.900Z,11.90
2023-10-23T22:32:07.765Z,11.90
2023-10-23T22:34:37.821Z,11.90
2023-10-23T22:37:58.597Z,11.90
2023-10-23T22:40:01.520Z,11.90
2023-10-23T22:42:31.739Z,11.90
2023-10-23T22:45:01.638Z,11.90
2023-10-23T22:47:31.634Z,11.90
2023-10-23T22:50:02.540Z,11.90
2023-10-23T22:52:33.403Z,11.90
2023-10-23T22:55:08.298Z,11.90
2023-10-23T22:57:41.299Z,11.90
2023-10-23T23:00:13.438Z,11.90
2023-10-23T23:02:44.192Z,11.90
2023-10-23T23:05:15.563Z,11.90
2023-10-23T23:07:47.949Z,11.90
2023-10-23T23:10:21.948Z,11.90
2023-10-23T23:12:52.511Z,11.90
2023-10-23T23:15:24.606Z,11.80
2023-10-23T23:18:06.161Z,11.80
2023-10-23T23:20:42.188Z,11.80
2023-10-23T23:23:12.331Z,11.80
2023-10-23T23:25:45.185Z,11.90
2023-10-23T23:28:17.142Z,11.80
2023-10-23T23:30:47.146Z,11.80
2023-10-23T23:33:17.159Z,11.80
2023-10-23T23:35:47.036Z,11.90
2023-10-23T23:38:16.948Z,12.00
2023-10-23T23:40:49.597Z,12.00
2023-10-23T23:43:19.702Z,11.90
2023-10-23T23:45:49.636Z,12.00
2023-10-23T23:48:19.570Z,11.90
2023-10-23T23:50:49.578Z,11.90
2023-10-23T23:53:19.466Z,11.90
2023-10-23T23:55:51.962Z,11.80
2023-10-23T23:58:25.065Z,11.80
